createdAt,value
2023-02-15T00:00:02.000Z,7
2023-02-15T00:01:17.000Z,6.9
2023-02-15T00:02:32.000Z,6.7
2023-02-15T00:03:48.000Z,6.6
2023-02-15T00:05:03.000Z,6.5
2023-02-15T00:06:18.000Z,6.5
2023-02-15T00:07:34.000Z,6.4
2023-02-15T00:08:50.000Z,6.4
2023-02-15T00:10:07.000Z,6.3
2023-02-15T00:11:23.320Z,6.5
2023-02-15T00:12:39.000Z,6.5
2023-02-15T00:13:55.000Z,6.6
2023-02-15T00:15:11.000Z,6.6
2023-02-15T00:16:28.000Z,6.7
2023-02-15T00:17:44.308Z,6.7
2023-02-15T00:19:00.000Z,6.6
2023-02-15T00:20:16.000Z,6.6
2023-02-15T00:21:32.000Z,6.6
2023-02-15T00:22:48.000Z,6.5
2023-02-15T00:24:04.305Z,6.5
2023-02-15T00:25:20.000Z,6.6
2023-02-15T00:26:36.000Z,6.7
2023-02-15T00:27:52.000Z,6.8
2023-02-15T00:29:09.000Z,6.8
2023-02-15T00:30:25.000Z,6.8
2023-02-15T00:31:40.000Z,6.6
2023-02-15T00:32:55.000Z,6.5
2023-02-15T00:34:11.000Z,6.4
2023-02-15T00:35:26.000Z,6.2
2023-02-15T00:36:42.347Z,6.2
2023-02-15T00:37:58.000Z,6.3
2023-02-15T00:39:14.000Z,6.4
2023-02-15T00:40:31.000Z,6.3
2023-02-15T00:41:47.000Z,6.3
2023-02-15T00:43:03.000Z,6.3
2023-02-15T00:44:19.000Z,6.2
2023-02-15T00:45:35.000Z,6.3
2023-02-15T00:46:51.000Z,6.3
2023-02-15T00:48:08.000Z,6.4
2023-02-15T00:49:24.000Z,6.5
2023-02-15T00:50:40.000Z,6.5
2023-02-15T00:51:55.000Z,6.5
2023-02-15T00:53:11.000Z,6.6
2023-02-15T00:54:28.000Z,6.6
2023-02-15T00:55:44.000Z,6.5
2023-02-15T00:57:00.000Z,6.3
2023-02-15T00:58:16.000Z,6.2
2023-02-15T00:59:32.000Z,6.1
2023-02-15T01:00:48.000Z,6.1
2023-02-15T01:02:03.000Z,6.1
2023-02-15T01:03:19.000Z,6.2
2023-02-15T01:04:34.000Z,6.1
2023-02-15T01:05:50.000Z,5.9
2023-02-15T01:07:06.000Z,5.8
2023-02-15T01:08:22.000Z,5.8
2023-02-15T01:09:38.000Z,6
2023-02-15T01:10:54.000Z,6.1
2023-02-15T01:12:11.000Z,6
2023-02-15T01:13:27.000Z,5.9
2023-02-15T01:14:43.320Z,5.8
2023-02-15T01:15:59.000Z,5.8
2023-02-15T01:17:15.000Z,5.9
2023-02-15T01:18:31.000Z,6
2023-02-15T01:19:48.000Z,5.9
2023-02-15T01:21:04.000Z,5.9
2023-02-15T01:22:19.000Z,5.9
2023-02-15T01:23:35.000Z,5.9
2023-02-15T01:24:51.000Z,5.8
2023-02-15T01:26:08.000Z,5.7
2023-02-15T01:27:24.000Z,5.8
2023-02-15T01:28:40.000Z,5.8
2023-02-15T01:29:56.000Z,5.8
2023-02-15T01:31:11.000Z,5.8
2023-02-15T01:32:27.000Z,5.8
2023-02-15T01:33:42.000Z,5.9
2023-02-15T01:34:57.000Z,5.9
2023-02-15T01:36:13.000Z,6
2023-02-15T01:37:30.000Z,6
2023-02-15T01:38:46.000Z,6
2023-02-15T01:40:02.000Z,6
2023-02-15T01:41:18.000Z,6
2023-02-15T01:42:34.000Z,5.9
2023-02-15T01:43:51.000Z,5.8
2023-02-15T01:45:07.000Z,5.8
2023-02-15T01:46:23.000Z,5.8
2023-02-15T01:47:39.000Z,5.8
2023-02-15T01:48:55.000Z,5.8
2023-02-15T01:50:11.000Z,5.8
2023-02-15T01:51:27.000Z,5.7
2023-02-15T01:52:43.000Z,5.6
2023-02-15T01:53:59.000Z,5.4
2023-02-15T01:55:15.000Z,5.4
2023-02-15T01:56:31.000Z,5.4
2023-02-15T01:57:48.000Z,5.4
2023-02-15T01:59:04.000Z,5.4
2023-02-15T02:00:19.000Z,5.4
2023-02-15T02:01:34.713Z,5.5
2023-02-15T02:02:50.000Z,5.4
2023-02-15T02:04:05.000Z,5.3
2023-02-15T02:05:21.000Z,5.3
2023-02-15T02:06:37.000Z,5.3
2023-02-15T02:07:53.000Z,5.3
2023-02-15T02:09:09.000Z,5.2
2023-02-15T02:10:26.000Z,5.2
2023-02-15T02:11:42.000Z,5.1
2023-02-15T02:12:58.000Z,5
2023-02-15T02:14:14.000Z,4.9
2023-02-15T02:15:30.000Z,4.9
2023-02-15T02:16:47.000Z,4.9
2023-02-15T02:18:03.276Z,4.9
2023-02-15T02:19:19.476Z,4.8
2023-02-15T02:20:34.000Z,4.8
2023-02-15T02:21:50.000Z,4.8
2023-02-15T02:23:07.000Z,4.7
2023-02-15T02:24:23.000Z,4.7
2023-02-15T02:25:39.000Z,4.7
2023-02-15T02:26:55.000Z,4.8
2023-02-15T02:28:11.000Z,4.9
2023-02-15T02:29:27.072Z,4.8
2023-02-15T02:30:42.000Z,4.7
2023-02-15T02:31:57.000Z,4.6
2023-02-15T02:33:13.000Z,4.6
2023-02-15T02:34:28.000Z,4.5
2023-02-15T02:35:45.000Z,4.5
2023-02-15T02:37:01.000Z,4.4
2023-02-15T02:38:17.000Z,4.5
2023-02-15T02:39:33.000Z,4.6
2023-02-15T02:40:49.000Z,4.5
2023-02-15T02:42:06.000Z,4.5
2023-02-15T02:43:22.000Z,4.5
2023-02-15T02:44:38.000Z,4.6
2023-02-15T02:45:54.000Z,4.7
2023-02-15T02:47:10.000Z,4.8
2023-02-15T02:48:27.000Z,4.9
2023-02-15T02:49:43.000Z,5.1
2023-02-15T02:50:58.000Z,5.2
2023-02-15T02:52:14.000Z,5.3
2023-02-15T02:53:30.000Z,5.3
2023-02-15T02:54:47.000Z,5.4
2023-02-15T02:56:03.204Z,5.2
2023-02-15T02:57:19.000Z,5.1
2023-02-15T02:58:34.000Z,5.2
2023-02-15T02:59:49.000Z,5.2
2023-02-15T03:01:06.000Z,5.2
2023-02-15T03:02:21.000Z,5.1
2023-02-15T03:03:36.000Z,5.1
2023-02-15T03:04:52.000Z,5
2023-02-15T03:06:08.000Z,5
2023-02-15T03:07:25.000Z,5
2023-02-15T03:08:41.231Z,5
2023-02-15T03:09:57.000Z,5
2023-02-15T03:11:13.000Z,4.9
2023-02-15T03:12:29.000Z,4.9
2023-02-15T03:13:46.000Z,4.8
2023-02-15T03:15:02.000Z,4.7
2023-02-15T03:16:18.000Z,4.7
2023-02-15T03:17:34.000Z,4.6
2023-02-15T03:18:50.000Z,4.7
2023-02-15T03:20:06.000Z,4.8
2023-02-15T03:21:22.179Z,5
2023-02-15T03:22:38.000Z,5.1
2023-02-15T03:23:54.000Z,5.2
2023-02-15T03:25:10.000Z,5.3
2023-02-15T03:26:27.000Z,5.3
2023-02-15T03:27:43.000Z,5.3
2023-02-15T03:28:58.000Z,5.3
2023-02-15T03:30:13.000Z,5.2
2023-02-15T03:31:28.000Z,5.3
2023-02-15T03:32:44.001Z,5.3
2023-02-15T03:34:00.000Z,5.1
2023-02-15T03:35:16.000Z,5
2023-02-15T03:36:32.000Z,4.8
2023-02-15T03:37:48.000Z,4.7
2023-02-15T03:39:05.000Z,4.6
2023-02-15T03:40:21.000Z,4.6
2023-02-15T03:41:37.000Z,4.6
2023-02-15T03:42:53.000Z,4.5
2023-02-15T03:44:09.000Z,4.5
2023-02-15T03:45:26.000Z,4.5
2023-02-15T03:46:42.127Z,4.6
2023-02-15T03:47:58.000Z,4.6
2023-02-15T03:49:13.000Z,4.6
2023-02-15T03:50:29.000Z,4.6
2023-02-15T03:51:46.000Z,4.6
2023-02-15T03:53:02.000Z,4.6
2023-02-15T03:54:18.000Z,4.8
2023-02-15T03:55:34.000Z,4.9
2023-02-15T03:56:50.000Z,5
2023-02-15T03:58:06.000Z,5.1
2023-02-15T03:59:21.000Z,5.2
2023-02-15T04:00:37.000Z,5.2
2023-02-15T04:01:53.000Z,5.3
2023-02-15T04:03:08.000Z,5.3
2023-02-15T04:04:23.945Z,5.4
2023-02-15T04:05:40.000Z,5.4
2023-02-15T04:06:56.000Z,5.4
2023-02-15T04:08:12.000Z,5.4
2023-02-15T04:09:28.000Z,5.4
2023-02-15T04:10:45.000Z,5.5
2023-02-15T04:12:01.000Z,5.5
2023-02-15T04:13:17.000Z,5.6
2023-02-15T04:14:33.000Z,5.6
2023-02-15T04:15:49.000Z,5.6
2023-02-15T04:17:05.000Z,5.6
2023-02-15T04:18:22.087Z,5.7
2023-02-15T04:19:38.000Z,5.7
2023-02-15T04:20:53.000Z,5.7
2023-02-15T04:22:09.000Z,5.7
2023-02-15T04:23:25.000Z,5.7
2023-02-15T04:24:42.076Z,5.7
2023-02-15T04:25:58.000Z,5.7
2023-02-15T04:27:14.000Z,5.6
2023-02-15T04:28:30.000Z,5.5
2023-02-15T04:29:45.000Z,5.3
2023-02-15T04:31:01.000Z,5.2
2023-02-15T04:32:17.000Z,5.2
2023-02-15T04:33:32.000Z,5.2
2023-02-15T04:34:47.000Z,5.2
2023-02-15T04:36:03.000Z,5.2
2023-02-15T04:37:20.000Z,5.1
2023-02-15T04:38:36.000Z,5.1
2023-02-15T04:39:52.000Z,5.1
2023-02-15T04:41:08.000Z,5.2
2023-02-15T04:42:24.000Z,5.2
2023-02-15T04:43:41.000Z,5.2
2023-02-15T04:44:57.000Z,5.2
2023-02-15T04:46:13.000Z,5.1
2023-02-15T04:47:29.000Z,5
2023-02-15T04:48:45.000Z,4.8
2023-02-15T04:50:02.030Z,4.7
2023-02-15T04:51:17.000Z,4.6
2023-02-15T04:52:33.000Z,4.5
2023-02-15T04:53:49.000Z,4.4
2023-02-15T04:55:05.000Z,4.3
2023-02-15T04:56:22.000Z,4.3
2023-02-15T04:57:38.000Z,4.3
2023-02-15T04:58:54.000Z,4.3
2023-02-15T05:00:09.000Z,4.3
2023-02-15T05:01:24.000Z,4.3
2023-02-15T05:02:41.000Z,4.5
2023-02-15T05:03:57.000Z,4.6
2023-02-15T05:05:12.000Z,4.6
2023-02-15T05:06:27.000Z,4.7
2023-02-15T05:07:43.000Z,4.8
2023-02-15T05:09:00.000Z,4.8
2023-02-15T05:10:16.000Z,4.9
2023-02-15T05:11:32.000Z,4.9
2023-02-15T05:12:48.000Z,4.9
2023-02-15T05:14:04.000Z,4.8
2023-02-15T05:15:21.000Z,4.9
2023-02-15T05:16:37.196Z,4.9
2023-02-15T05:17:53.000Z,4.9
2023-02-15T05:19:09.000Z,4.9
2023-02-15T05:20:25.000Z,4.8
2023-02-15T05:21:41.979Z,4.7
2023-02-15T05:22:57.000Z,4.6
2023-02-15T05:24:13.000Z,4.4
2023-02-15T05:25:29.000Z,4.3
2023-02-15T05:26:45.000Z,4.3
2023-02-15T05:28:01.963Z,4.3
2023-02-15T05:29:18.000Z,4.3
2023-02-15T05:30:34.000Z,4.3
2023-02-15T05:31:49.000Z,4.3
2023-02-15T05:33:04.000Z,4.4
2023-02-15T05:34:20.000Z,4.5
2023-02-15T05:35:35.000Z,4.5
2023-02-15T05:36:51.000Z,4.4
2023-02-15T05:38:07.000Z,4.5
2023-02-15T05:39:23.000Z,4.5
2023-02-15T05:40:40.000Z,4.4
2023-02-15T05:41:56.168Z,4.3
2023-02-15T05:43:12.000Z,4.3
2023-02-15T05:44:28.000Z,4.3
2023-02-15T05:45:44.000Z,4.3
2023-02-15T05:47:01.000Z,4.4
2023-02-15T05:48:17.000Z,4.4
2023-02-15T05:49:33.330Z,4.5
2023-02-15T05:50:49.000Z,4.5
2023-02-15T05:52:04.000Z,4.5
2023-02-15T05:53:21.000Z,4.5
2023-02-15T05:54:37.000Z,4.4
2023-02-15T05:55:53.000Z,4.4
2023-02-15T05:57:09.000Z,4.3
2023-02-15T05:58:25.000Z,4.2
2023-02-15T05:59:41.000Z,4.3
2023-02-15T06:00:57.000Z,4.3
2023-02-15T06:02:12.000Z,4.4
2023-02-15T06:03:28.000Z,4.5
2023-02-15T06:04:43.000Z,4.6
2023-02-15T06:05:59.000Z,4.6
2023-02-15T06:07:15.000Z,4.7
2023-02-15T06:08:31.000Z,4.7
2023-02-15T06:09:47.000Z,4.7
2023-02-15T06:11:03.000Z,4.7
2023-02-15T06:12:20.000Z,4.7
2023-02-15T06:13:36.000Z,4.6
2023-02-15T06:14:52.000Z,4.5
2023-02-15T06:16:07.000Z,4.4
2023-02-15T06:17:23.000Z,4.3
2023-02-15T06:18:39.000Z,4.3
2023-02-15T06:19:56.000Z,4.2
2023-02-15T06:21:12.000Z,4.2
2023-02-15T06:22:28.000Z,4.2
2023-02-15T06:23:44.000Z,4.1
2023-02-15T06:25:00.000Z,4.2
2023-02-15T06:26:17.000Z,4.3
2023-02-15T06:27:33.000Z,4.4
2023-02-15T06:28:49.000Z,4.4
2023-02-15T06:30:05.000Z,4.3
2023-02-15T06:31:20.874Z,4.4
2023-02-15T06:32:37.000Z,4.4
2023-02-15T06:33:52.000Z,4.4
2023-02-15T06:35:07.000Z,4.5
2023-02-15T06:36:22.000Z,4.5
2023-02-15T06:37:38.000Z,4.5
2023-02-15T06:38:55.000Z,4.5
2023-02-15T06:40:11.000Z,4.4
2023-02-15T06:41:27.000Z,4.3
2023-02-15T06:42:43.000Z,4.2
2023-02-15T06:43:59.000Z,4.2
2023-02-15T06:45:16.000Z,4.1
2023-02-15T06:46:32.000Z,4
2023-02-15T06:47:48.449Z,4
2023-02-15T06:49:04.000Z,4.1
2023-02-15T06:50:20.000Z,4.1
2023-02-15T06:51:37.000Z,4.2
2023-02-15T06:52:52.000Z,4.2
2023-02-15T06:54:08.000Z,4.2
2023-02-15T06:55:24.640Z,4.3
2023-02-15T06:56:40.000Z,4.3
2023-02-15T06:57:57.000Z,4.4
2023-02-15T06:59:13.000Z,4.4
2023-02-15T07:00:29.000Z,4.4
2023-02-15T07:01:44.000Z,4.4
2023-02-15T07:02:59.000Z,4.5
2023-02-15T07:04:16.000Z,4.5
2023-02-15T07:05:31.000Z,4.5
2023-02-15T07:06:46.000Z,4.6
2023-02-15T07:08:02.000Z,4.5
2023-02-15T07:09:18.000Z,4.5
2023-02-15T07:10:35.000Z,4.6
2023-02-15T07:11:51.000Z,4.6
2023-02-15T07:13:07.000Z,4.6
2023-02-15T07:14:23.000Z,4.6
2023-02-15T07:15:39.000Z,4.5
2023-02-15T07:16:56.000Z,4.4
2023-02-15T07:18:12.000Z,4.3
2023-02-15T07:19:28.000Z,4.3
2023-02-15T07:20:44.000Z,4.3
2023-02-15T07:22:00.000Z,4.3
2023-02-15T07:23:16.000Z,4.3
2023-02-15T07:24:32.000Z,4.2
2023-02-15T07:25:48.000Z,4.2
2023-02-15T07:27:04.000Z,4.2
2023-02-15T07:28:20.000Z,4.2
2023-02-15T07:29:37.000Z,4.3
2023-02-15T07:30:53.000Z,4.2
2023-02-15T07:32:08.000Z,4.1
2023-02-15T07:33:23.000Z,4.2
2023-02-15T07:34:39.000Z,4.2
2023-02-15T07:35:56.000Z,4.3
2023-02-15T07:37:12.000Z,4.3
2023-02-15T07:38:28.000Z,4.4
2023-02-15T07:39:44.549Z,4.3
2023-02-15T07:41:00.000Z,4.3
2023-02-15T07:42:17.000Z,4.3
2023-02-15T07:43:33.000Z,4.4
2023-02-15T07:44:49.000Z,4.4
2023-02-15T07:46:05.000Z,4.4
2023-02-15T07:47:21.713Z,4.3
2023-02-15T07:48:38.000Z,4.1
2023-02-15T07:49:53.000Z,4
2023-02-15T07:51:09.000Z,4
2023-02-15T07:52:25.505Z,3.9
2023-02-15T07:53:41.000Z,3.9
2023-02-15T07:54:57.000Z,3.9
2023-02-15T07:56:14.000Z,3.9
2023-02-15T07:57:30.000Z,3.9
2023-02-15T07:58:45.000Z,4
2023-02-15T08:00:00.000Z,4.1
2023-02-15T08:01:16.000Z,4.3
2023-02-15T08:02:31.000Z,4.8
2023-02-15T08:03:47.000Z,5.1
2023-02-15T08:05:03.000Z,6.1
2023-02-15T08:06:19.000Z,7.1
2023-02-15T08:07:36.000Z,8
2023-02-15T08:08:52.000Z,8.7
2023-02-15T08:10:08.000Z,9.3
2023-02-15T08:11:24.000Z,9.8
2023-02-15T08:12:40.700Z,10.6
2023-02-15T08:13:56.000Z,11.3
2023-02-15T08:15:13.000Z,11.9
2023-02-15T08:16:29.000Z,12.2
2023-02-15T08:17:45.000Z,12.7
2023-02-15T08:19:00.000Z,13
2023-02-15T08:20:16.000Z,12.9
2023-02-15T08:21:33.000Z,13.4
2023-02-15T08:22:49.000Z,13.4
2023-02-15T08:24:05.000Z,13
2023-02-15T08:25:21.000Z,13.2
2023-02-15T08:26:37.823Z,13.3
2023-02-15T08:27:53.000Z,13.4
2023-02-15T08:29:08.000Z,13.6
2023-02-15T08:30:24.000Z,13.9
2023-02-15T08:31:40.000Z,13.5
2023-02-15T08:32:56.000Z,13.5
2023-02-15T08:34:13.000Z,13.3
2023-02-15T08:35:29.000Z,13.6
2023-02-15T08:36:45.000Z,13.5
2023-02-15T08:38:01.000Z,13.2
2023-02-15T08:39:17.000Z,13.2
2023-02-15T08:40:34.000Z,12.4
2023-02-15T08:41:50.000Z,11.9
2023-02-15T08:43:06.487Z,11.5
2023-02-15T08:44:22.000Z,11.7
2023-02-15T08:45:37.000Z,11.8
2023-02-15T08:46:54.000Z,12.2
2023-02-15T08:48:10.000Z,12.4
2023-02-15T08:49:26.000Z,12.4
2023-02-15T08:50:42.568Z,12.4
2023-02-15T08:51:58.000Z,12.6
2023-02-15T08:53:15.000Z,12.6
2023-02-15T08:54:30.000Z,12.8
2023-02-15T08:55:45.000Z,13.3
2023-02-15T08:57:01.000Z,13.9
2023-02-15T08:58:17.000Z,14.6
2023-02-15T08:59:34.000Z,15.2
2023-02-15T09:00:50.000Z,15.1
2023-02-15T09:02:06.000Z,15.3
2023-02-15T09:03:22.000Z,15.8
2023-02-15T09:04:38.000Z,16.2
2023-02-15T09:05:55.000Z,16.3
2023-02-15T09:07:11.000Z,16.1
2023-02-15T09:08:27.000Z,16.2
2023-02-15T09:09:43.000Z,16
2023-02-15T09:10:59.000Z,16.1
2023-02-15T09:12:15.000Z,16.2
2023-02-15T09:13:31.000Z,16.5
2023-02-15T09:14:47.000Z,16.9
2023-02-15T09:16:03.000Z,17.3
2023-02-15T09:17:19.000Z,17.5
2023-02-15T09:18:35.000Z,17.6
2023-02-15T09:19:52.000Z,18.1
2023-02-15T09:21:07.000Z,18.3
2023-02-15T09:22:22.000Z,18.3
2023-02-15T09:23:38.000Z,17.9
2023-02-15T09:24:54.000Z,17.9
2023-02-15T09:26:11.000Z,17.7
2023-02-15T09:27:27.000Z,17.9
2023-02-15T09:28:43.500Z,17.7
2023-02-15T09:29:59.000Z,17.5
2023-02-15T09:31:15.000Z,17.2
2023-02-15T09:32:32.000Z,17.4
2023-02-15T09:33:48.269Z,17.5
2023-02-15T09:35:04.000Z,17.8
2023-02-15T09:36:20.000Z,17.9
2023-02-15T09:37:36.000Z,17.4
2023-02-15T09:38:52.000Z,16.9
2023-02-15T09:40:08.000Z,16.8
2023-02-15T09:41:24.000Z,16.8
2023-02-15T09:42:40.000Z,17.2
2023-02-15T09:43:56.000Z,17.7
2023-02-15T09:45:13.000Z,18.4
2023-02-15T09:46:29.000Z,18.9
2023-02-15T09:47:45.000Z,18.9
2023-02-15T09:49:01.000Z,18.9
2023-02-15T09:50:17.000Z,18.8
2023-02-15T09:51:34.000Z,18.7
2023-02-15T09:52:50.000Z,18.5
2023-02-15T09:54:06.000Z,19.2
2023-02-15T09:55:21.000Z,19.5
2023-02-15T09:56:37.000Z,19.9
2023-02-15T09:57:54.000Z,20.2
2023-02-15T09:59:10.000Z,20.2
2023-02-15T10:00:26.000Z,20.2
2023-02-15T10:01:42.000Z,19.8
2023-02-15T10:02:58.000Z,19.2
2023-02-15T10:04:15.000Z,19.6
2023-02-15T10:05:31.000Z,20
2023-02-15T10:06:47.351Z,20.5
2023-02-15T10:08:03.000Z,20.9
2023-02-15T10:09:19.000Z,21.1
2023-02-15T10:10:36.000Z,21.1
2023-02-15T10:11:51.000Z,21.3
2023-02-15T10:13:07.000Z,21.4
2023-02-15T10:14:23.000Z,21.2
2023-02-15T10:15:39.000Z,21.1
2023-02-15T10:16:56.000Z,20.7
2023-02-15T10:18:12.000Z,20
2023-02-15T10:19:28.295Z,19.5
2023-02-15T10:20:44.000Z,20
2023-02-15T10:22:00.000Z,20
2023-02-15T10:23:16.000Z,20.5
2023-02-15T10:24:33.000Z,20.7
2023-02-15T10:25:49.000Z,21.1
2023-02-15T10:27:05.000Z,21.7
2023-02-15T10:28:20.000Z,21.7
2023-02-15T10:29:36.000Z,21.9
2023-02-15T10:30:52.000Z,21.7
2023-02-15T10:32:08.000Z,21.7
2023-02-15T10:33:24.000Z,22
2023-02-15T10:34:40.000Z,22.1
2023-02-15T10:35:56.000Z,22.1
2023-02-15T10:37:13.000Z,21.8
2023-02-15T10:38:29.000Z,21.3
2023-02-15T10:39:45.000Z,21.1
2023-02-15T10:41:01.000Z,21.2
2023-02-15T10:42:17.000Z,20.9
2023-02-15T10:43:34.000Z,20.5
2023-02-15T10:44:50.219Z,20.2
2023-02-15T10:46:06.000Z,19.6
2023-02-15T10:47:21.000Z,19.1
2023-02-15T10:48:37.000Z,18.8
2023-02-15T10:49:54.000Z,18.6
2023-02-15T10:51:10.000Z,18.3
2023-02-15T10:52:26.000Z,18.3
2023-02-15T10:53:42.000Z,17.9
2023-02-15T10:54:58.000Z,17.5
2023-02-15T10:56:15.000Z,17.6
2023-02-15T10:57:31.176Z,17.6
2023-02-15T10:58:47.000Z,17.6
2023-02-15T11:00:03.000Z,17.4
2023-02-15T11:01:19.000Z,17.4
2023-02-15T11:02:36.000Z,17.6
2023-02-15T11:03:51.000Z,17.7
2023-02-15T11:05:07.000Z,17.9
2023-02-15T11:06:23.000Z,17.9
2023-02-15T11:07:39.000Z,18
2023-02-15T11:08:56.000Z,18.1
2023-02-15T11:10:12.125Z,18
2023-02-15T11:11:28.000Z,17.8
2023-02-15T11:12:44.000Z,17.7
2023-02-15T11:14:00.000Z,17.7
2023-02-15T11:15:16.000Z,17.4
2023-02-15T11:16:33.000Z,17
2023-02-15T11:17:49.000Z,16.6
2023-02-15T11:19:05.000Z,16.7
2023-02-15T11:20:20.000Z,16.5
2023-02-15T11:21:36.000Z,16.1
2023-02-15T11:22:53.070Z,15.9
2023-02-15T11:24:09.000Z,15.7
2023-02-15T11:25:25.000Z,15.6
2023-02-15T11:26:41.000Z,15.9
2023-02-15T11:27:57.000Z,16.2
2023-02-15T11:29:14.000Z,16.2
2023-02-15T11:30:30.000Z,16.4
2023-02-15T11:31:46.000Z,16.5
2023-02-15T11:33:02.000Z,16.6
2023-02-15T11:34:18.000Z,16.2
2023-02-15T11:35:35.000Z,16.3
2023-02-15T11:36:50.000Z,16.6
2023-02-15T11:38:06.000Z,16.7
2023-02-15T11:39:22.000Z,16.5
2023-02-15T11:40:38.000Z,16.2
2023-02-15T11:41:55.000Z,15.9
2023-02-15T11:43:11.000Z,15.9
2023-02-15T11:44:27.000Z,16
2023-02-15T11:45:43.000Z,15.8
2023-02-15T11:46:59.000Z,15.8
2023-02-15T11:48:16.000Z,15.9
2023-02-15T11:49:32.000Z,16
2023-02-15T11:50:48.000Z,16.2
2023-02-15T11:52:04.000Z,16.1
2023-02-15T11:53:19.000Z,16
2023-02-15T11:54:36.000Z,16
2023-02-15T11:55:52.000Z,16
2023-02-15T11:57:08.000Z,15.9
2023-02-15T11:58:24.000Z,15.8
2023-02-15T11:59:40.000Z,15.8
2023-02-15T12:00:56.950Z,15.7
2023-02-15T12:02:13.000Z,15.7
2023-02-15T12:03:29.000Z,15.8
2023-02-15T12:04:45.000Z,15.8
2023-02-15T12:06:01.000Z,15.7
2023-02-15T12:07:18.000Z,15.7
2023-02-15T12:08:34.000Z,15.9
2023-02-15T12:09:49.000Z,16.2
2023-02-15T12:11:05.000Z,16.4
2023-02-15T12:12:21.000Z,16.3
2023-02-15T12:13:38.000Z,16.1
2023-02-15T12:14:54.000Z,16
2023-02-15T12:16:10.000Z,16
2023-02-15T12:17:26.000Z,15.9
2023-02-15T12:18:42.694Z,15.9
2023-02-15T12:19:58.000Z,15.9
2023-02-15T12:21:15.000Z,16
2023-02-15T12:22:31.000Z,16.1
2023-02-15T12:23:47.000Z,15.8
2023-02-15T12:25:03.000Z,15.7
2023-02-15T12:26:18.000Z,15.7
2023-02-15T12:27:35.000Z,15.8
2023-02-15T12:28:51.000Z,16
2023-02-15T12:30:07.000Z,16.1
2023-02-15T12:31:23.000Z,16
2023-02-15T12:32:39.000Z,15.9
2023-02-15T12:33:56.000Z,15.9
2023-02-15T12:35:12.000Z,15.8
2023-02-15T12:36:28.000Z,15.6
2023-02-15T12:37:44.000Z,15.5
2023-02-15T12:39:00.837Z,15.2
2023-02-15T12:40:17.000Z,14.9
2023-02-15T12:41:33.000Z,14.8
2023-02-15T12:42:48.000Z,14.6
2023-02-15T12:44:04.000Z,14.4
2023-02-15T12:45:20.000Z,14.5
2023-02-15T12:46:37.000Z,14.6
2023-02-15T12:47:53.000Z,14.7
2023-02-15T12:49:09.000Z,14.9
2023-02-15T12:50:25.000Z,15
2023-02-15T12:51:41.000Z,15
2023-02-15T12:52:58.000Z,15.1
2023-02-15T12:54:14.000Z,15.1
2023-02-15T12:55:30.000Z,15.1
2023-02-15T12:56:46.000Z,15.1
2023-02-15T12:58:02.000Z,15.2
2023-02-15T12:59:18.000Z,15.2
2023-02-15T13:00:34.000Z,15.1
2023-02-15T13:01:50.000Z,15.1
2023-02-15T13:03:06.000Z,15.1
2023-02-15T13:04:22.000Z,14.9
2023-02-15T13:05:39.000Z,15
2023-02-15T13:06:55.000Z,15
2023-02-15T13:08:11.000Z,15
2023-02-15T13:09:27.000Z,15
2023-02-15T13:10:43.000Z,14.9
2023-02-15T13:12:00.000Z,14.9
2023-02-15T13:13:16.000Z,14.9
2023-02-15T13:14:32.000Z,14.9
2023-02-15T13:15:47.000Z,15
2023-02-15T13:17:03.744Z,15
2023-02-15T13:18:20.000Z,15
2023-02-15T13:19:36.000Z,15
2023-02-15T13:20:52.000Z,14.9
2023-02-15T13:22:08.000Z,14.8
2023-02-15T13:23:24.000Z,14.8
2023-02-15T13:24:41.000Z,14.9
2023-02-15T13:25:57.000Z,14.9
2023-02-15T13:27:13.000Z,14.9
2023-02-15T13:28:29.000Z,14.9
2023-02-15T13:29:45.700Z,14.8
2023-02-15T13:31:02.000Z,14.9
2023-02-15T13:32:17.000Z,14.9
2023-02-15T13:33:33.000Z,14.9
2023-02-15T13:34:49.000Z,14.8
2023-02-15T13:36:05.000Z,14.9
2023-02-15T13:37:21.000Z,14.9
2023-02-15T13:38:38.000Z,14.8
2023-02-15T13:39:54.000Z,14.9
2023-02-15T13:41:10.000Z,14.9
2023-02-15T13:42:26.000Z,14.8
2023-02-15T13:43:42.000Z,14.8
2023-02-15T13:44:59.049Z,14.6
2023-02-15T13:46:15.000Z,14.4
2023-02-15T13:47:31.000Z,14.3
2023-02-15T13:48:46.000Z,14.4
2023-02-15T13:50:02.000Z,14.4
2023-02-15T13:51:19.000Z,14.5
2023-02-15T13:52:35.000Z,14.5
2023-02-15T13:53:51.000Z,14.6
2023-02-15T13:55:07.000Z,14.6
2023-02-15T13:56:23.000Z,14.7
2023-02-15T13:57:40.000Z,14.7
2023-02-15T13:58:56.000Z,14.8
2023-02-15T14:00:12.000Z,14.9
2023-02-15T14:01:28.000Z,14.9
2023-02-15T14:02:44.000Z,15
2023-02-15T14:04:01.000Z,15
2023-02-15T14:05:16.000Z,15
2023-02-15T14:06:32.483Z,15
2023-02-15T14:07:48.686Z,14.9
2023-02-15T14:09:04.000Z,14.8
2023-02-15T14:10:21.000Z,14.8
2023-02-15T14:11:37.000Z,14.8
2023-02-15T14:12:53.000Z,14.8
2023-02-15T14:14:09.000Z,14.7
2023-02-15T14:15:25.000Z,14.7
2023-02-15T14:16:42.000Z,14.7
2023-02-15T14:17:58.000Z,14.7
2023-02-15T14:19:14.000Z,14.7
2023-02-15T14:20:30.000Z,14.7
2023-02-15T14:21:45.000Z,14.6
2023-02-15T14:23:02.000Z,14.6
2023-02-15T14:24:18.000Z,14.6
2023-02-15T14:25:34.000Z,14.6
2023-02-15T14:26:50.000Z,14.5
2023-02-15T14:28:06.000Z,14.6
2023-02-15T14:29:23.000Z,14.6
2023-02-15T14:30:39.000Z,14.6
2023-02-15T14:31:55.000Z,14.6
2023-02-15T14:33:11.000Z,14.6
2023-02-15T14:34:27.000Z,14.6
2023-02-15T14:35:44.000Z,14.6
2023-02-15T14:37:00.000Z,14.6
2023-02-15T14:38:15.000Z,14.6
2023-02-15T14:39:31.000Z,14.6
2023-02-15T14:40:47.801Z,14.6
2023-02-15T14:42:04.000Z,14.5
2023-02-15T14:43:20.189Z,14.5
2023-02-15T14:44:36.374Z,14.5
2023-02-15T14:45:51.594Z,14.5
2023-02-15T14:47:07.000Z,14.5
2023-02-15T14:48:24.000Z,14.5
2023-02-15T14:49:40.000Z,14.4
2023-02-15T14:50:56.000Z,14.5
2023-02-15T14:52:12.000Z,14.4
2023-02-15T14:53:28.000Z,14.5
2023-02-15T14:54:44.000Z,14.5
2023-02-15T14:56:01.000Z,14.5
2023-02-15T14:57:17.000Z,14.5
2023-02-15T14:58:33.000Z,14.5
2023-02-15T14:59:49.000Z,14.5
2023-02-15T15:01:05.952Z,14.5
2023-02-15T15:02:21.000Z,14.6
2023-02-15T15:03:37.000Z,14.6
2023-02-15T15:04:53.000Z,14.5
2023-02-15T15:06:09.000Z,14.5
2023-02-15T15:07:25.000Z,14.5
2023-02-15T15:08:42.000Z,14.5
2023-02-15T15:09:58.000Z,14.6
2023-02-15T15:11:14.000Z,14.6
2023-02-15T15:12:30.000Z,14.6
2023-02-15T15:13:46.000Z,14.6
2023-02-15T15:15:03.000Z,14.5
2023-02-15T15:16:19.000Z,14.5
2023-02-15T15:17:35.000Z,14.5
2023-02-15T15:18:50.000Z,14.5
2023-02-15T15:20:06.000Z,14.5
2023-02-15T15:21:23.000Z,14.5
2023-02-15T15:22:39.000Z,14.5
2023-02-15T15:23:55.484Z,14.4
2023-02-15T15:25:11.000Z,14.4
2023-02-15T15:26:27.000Z,14.3
2023-02-15T15:27:44.000Z,14.3
2023-02-15T15:29:00.000Z,14.3
2023-02-15T15:30:16.000Z,14.3
2023-02-15T15:31:32.000Z,14.3
2023-02-15T15:32:48.000Z,14.3
2023-02-15T15:34:05.000Z,14.3
2023-02-15T15:35:20.000Z,14.3
2023-02-15T15:36:36.453Z,14.2
2023-02-15T15:37:52.000Z,14.2
2023-02-15T15:39:08.000Z,14.2
2023-02-15T15:40:25.000Z,14.2
2023-02-15T15:41:41.000Z,14.2
2023-02-15T15:42:57.000Z,14.2
2023-02-15T15:44:13.000Z,14.2
2023-02-15T15:45:29.000Z,14.2
2023-02-15T15:46:46.000Z,14.2
2023-02-15T15:48:02.000Z,14.2
2023-02-15T15:49:18.000Z,14.2
2023-02-15T15:50:34.000Z,14.2
2023-02-15T15:51:49.000Z,14.1
2023-02-15T15:53:06.000Z,14.1
2023-02-15T15:54:22.000Z,14.1
2023-02-15T15:55:38.000Z,14.1
2023-02-15T15:56:54.000Z,14.1
2023-02-15T15:58:10.000Z,14.1
2023-02-15T15:59:27.000Z,14
2023-02-15T16:00:43.000Z,14
2023-02-15T16:01:59.000Z,14
2023-02-15T16:03:15.000Z,14
2023-02-15T16:04:31.000Z,14
2023-02-15T16:05:47.000Z,14
2023-02-15T16:07:04.158Z,14
2023-02-15T16:08:19.000Z,14
2023-02-15T16:09:35.000Z,13.9
2023-02-15T16:10:51.000Z,13.9
2023-02-15T16:12:07.000Z,13.9
2023-02-15T16:13:24.000Z,13.9
2023-02-15T16:14:40.342Z,13.9
2023-02-15T16:15:56.000Z,13.9
2023-02-15T16:17:12.000Z,13.9
2023-02-15T16:18:28.932Z,13.9
2023-02-15T16:19:45.000Z,13.8
2023-02-15T16:21:01.000Z,13.8
2023-02-15T16:22:17.000Z,13.8
2023-02-15T16:23:33.000Z,13.8
2023-02-15T16:24:48.000Z,13.8
2023-02-15T16:26:05.000Z,13.8
2023-02-15T16:27:21.000Z,13.8
2023-02-15T16:28:37.000Z,13.7
2023-02-15T16:29:53.000Z,13.7
2023-02-15T16:31:09.000Z,13.7
2023-02-15T16:32:26.000Z,13.6
2023-02-15T16:33:42.000Z,13.6
2023-02-15T16:34:58.000Z,13.6
2023-02-15T16:36:14.000Z,13.6
2023-02-15T16:37:30.000Z,13.6
2023-02-15T16:38:47.000Z,13.5
2023-02-15T16:40:03.000Z,13.5
2023-02-15T16:41:18.000Z,13.5
2023-02-15T16:42:34.000Z,13.5
2023-02-15T16:43:50.000Z,13.5
2023-02-15T16:45:07.000Z,13.5
2023-02-15T16:46:23.000Z,13.4
2023-02-15T16:47:39.000Z,13.4
2023-02-15T16:48:55.000Z,13.4
2023-02-15T16:50:11.000Z,13.4
2023-02-15T16:51:28.000Z,13.4
2023-02-15T16:52:44.256Z,13.3
2023-02-15T16:54:00.000Z,13.3
2023-02-15T16:55:16.628Z,13.2
2023-02-15T16:56:32.000Z,13.2
2023-02-15T16:57:48.000Z,13.2
2023-02-15T16:59:04.000Z,13.1
2023-02-15T17:00:20.000Z,13.1
2023-02-15T17:01:36.000Z,13.1
2023-02-15T17:02:52.000Z,13
2023-02-15T17:04:09.000Z,13
2023-02-15T17:05:25.000Z,13.1
2023-02-15T17:06:41.000Z,13
2023-02-15T17:07:57.000Z,13
2023-02-15T17:09:13.000Z,13
2023-02-15T17:10:30.000Z,13
2023-02-15T17:11:46.000Z,13
2023-02-15T17:13:02.000Z,13
2023-02-15T17:14:17.000Z,12.9